Time;durP1;ratioP1;P1;durP2;ratioP2;P2;SDS_P1;SDS_P2;PMS_P1;PMS_P2;Temp;Humidity;BMP_temperature;BMP_pressure;BME280_temperature;BME280_humidity;BME280_pressure;Samples;Min_cycle;Max_cycle;Signal;HPM_P1;HPM_P2
2022/06/17 00:00:50;;;;;;;5.88;4.68;;;17.00;98.60;;;;;;5029376;28;20040;-69
2022/06/17 00:03:16;;;;;;;5.45;4.95;;;16.70;98.20;;;;;;5028666;28;20049;-69
2022/06/17 00:05:42;;;;;;;5.15;4.63;;;16.80;98.20;;;;;;5029500;28;20029;-69
2022/06/17 00:08:18;;;;;;;5.20;4.38;;;16.90;99.90;;;;;;5028698;28;20266;-70
2022/06/17 00:10:44;;;;;;;7.20;5.60;;;16.90;98.10;;;;;;5029181;28;20029;-68
2022/06/17 00:13:16;;;;;;;7.05;5.65;;;16.90;98.70;;;;;;5029036;28;20030;-68
2022/06/17 00:15:42;;;;;;;4.57;4.15;;;16.80;99.10;;;;;;5029092;28;20489;-69
2022/06/17 00:18:08;;;;;;;6.30;5.05;;;16.90;99.90;;;;;;5027894;28;20041;-69
2022/06/17 00:20:35;;;;;;;5.20;4.70;;;16.80;98.90;;;;;;5032720;28;20032;-69
2022/06/17 00:23:02;;;;;;;6.00;4.68;;;16.80;99.00;;;;;;5032401;28;20199;-69
2022/06/17 00:25:31;;;;;;;4.82;4.32;;;16.80;99.10;;;;;;5033011;28;20018;-69
2022/06/17 00:27:58;;;;;;;5.40;4.90;;;16.80;99.40;;;;;;5032812;28;20136;-69
2022/06/17 00:30:28;;;;;;;5.82;5.20;;;14.40;98.60;;;;;;5032933;28;20033;-69
2022/06/17 00:32:55;;;;;;;5.93;5.35;;;16.90;99.40;;;;;;5031946;28;20474;-69
2022/06/17 00:35:23;;;;;;;5.60;5.05;;;16.80;99.40;;;;;;5032359;28;20043;-69
2022/06/17 00:37:48;;;;;;;6.95;4.95;;;16.80;99.40;;;;;;5032383;28;20496;-69
2022/06/17 00:40:21;;;;;;;6.93;5.45;;;16.90;99.30;;;;;;5032689;28;20017;-68
2022/06/17 00:42:47;;;;;;;6.43;5.07;;;16.90;99.70;;;;;;5032493;28;20454;-69
2022/06/17 00:45:28;;;;;;;5.65;4.85;;;17.00;99.50;;;;;;5032200;28;20057;-69
2022/06/17 00:48:04;;;;;;;7.55;5.88;;;17.00;99.00;;;;;;5031455;28;20033;-69
2022/06/17 00:50:34;;;;;;;5.93;4.63;;;17.00;98.90;;;;;;5032628;28;20379;-69
2022/06/17 00:53:17;;;;;;;5.30;4.80;;;17.00;99.30;;;;;;5031795;28;20029;-68
2022/06/17 00:55:49;;;;;;;8.43;6.03;;;17.00;99.90;;;;;;5032560;28;20018;-69
2022/06/17 00:58:29;;;;;;;5.05;4.55;;;17.00;99.90;;;;;;5031815;28;20068;-69
2022/06/17 01:01:01;;;;;;;10.25;5.18;;;17.00;99.90;;;;;;5031888;28;20022;-69
2022/06/17 01:03:35;;;;;;;6.70;5.38;;;17.00;99.90;;;;;;5032081;28;20104;-69
2022/06/17 01:06:02;;;;;;;;;;;17.00;99.90;;;;;;5032211;28;20147;-68
2022/06/17 01:11:28;;;;;;;6.63;5.00;;;17.10;99.90;;;;;;5032455;28;20032;-68
2022/06/17 01:13:54;;;;;;;5.70;5.07;;;17.00;99.70;;;;;;5031682;28;20498;-69
2022/06/17 01:16:32;;;;;;;6.82;5.28;;;17.00;99.60;;;;;;5031171;28;20033;-69
2022/06/17 01:19:02;;;;;;;6.38;5.78;;;17.10;99.90;;;;;;5030978;28;20033;-68
2022/06/17 01:21:38;;;;;;;7.72;6.32;;;17.20;99.90;;;;;;5032216;28;20060;-69
2022/06/17 01:24:06;;;;;;;9.48;6.93;;;19.70;99.90;;;;;;5031087;28;20061;-69
2022/06/17 01:26:31;;;;;;;8.70;7.05;;;17.10;99.70;;;;;;5031848;28;20021;-68
2022/06/17 01:28:57;;;;;;;7.05;6.05;;;17.20;99.70;;;;;;5029956;28;20115;-69
2022/06/17 01:31:23;;;;;;;6.03;5.40;;;17.10;99.60;;;;;;5030638;28;20309;-68
2022/06/17 01:33:48;;;;;;;7.95;6.93;;;18.10;99.80;;;;;;5031605;28;20033;-68
2022/06/17 01:36:28;;;;;;;7.55;6.85;;;17.10;99.50;;;;;;5031191;28;20100;-68
2022/06/17 01:38:59;;;;;;;7.28;6.57;;;17.30;99.90;;;;;;5031174;28;20034;-69
2022/06/17 01:41:28;;;;;;;8.25;7.40;;;17.20;99.70;;;;;;5031506;28;20051;-69
2022/06/17 01:44:04;;;;;;;6.85;6.15;;;17.20;99.60;;;;;;5031207;28;20029;-69
2022/06/17 01:46:41;;;;;;;7.00;6.30;;;16.90;99.90;;;;;;5030957;28;20048;-69
2022/06/17 01:49:14;;;;;;;9.27;6.32;;;17.70;99.90;;;;;;5030957;28;20029;-69
2022/06/17 01:51:44;;;;;;;7.20;6.50;;;17.10;99.90;;;;;;5031317;28;20474;-69
2022/06/17 01:54:16;;;;;;;6.72;6.07;;;17.00;99.90;;;;;;5030859;28;20100;-69
2022/06/17 01:56:44;;;;;;;7.82;6.97;;;16.90;99.90;;;;;;5031276;28;20022;-68
2022/06/17 01:59:17;;;;;;;8.40;7.65;;;16.80;99.90;;;;;;5030292;28;20064;-69
2022/06/17 02:01:47;;;;;;;9.40;6.67;;;16.70;99.90;;;;;;5031053;28;20040;-69
2022/06/17 02:04:17;;;;;;;9.13;6.10;;;16.70;99.90;;;;;;5030681;28;20674;-69
2022/06/17 02:06:54;;;;;;;8.45;6.95;;;16.60;99.90;;;;;;5030992;28;20368;-69
2022/06/17 02:09:20;;;;;;;8.40;7.60;;;16.70;99.80;;;;;;5030816;28;20034;-69
2022/06/17 02:11:47;;;;;;;7.65;6.85;;;16.60;99.90;;;;;;5030845;28;20030;-69
2022/06/17 02:14:13;;;;;;;9.15;8.18;;;16.60;99.90;;;;;;5030035;28;20032;-69
2022/06/17 02:16:42;;;;;;;7.90;7.10;;;16.60;99.90;;;;;;5030313;28;20075;-69
2022/06/17 02:19:09;;;;;;;7.50;6.80;;;16.30;99.90;;;;;;5029958;28;20041;-69
2022/06/17 02:21:49;;;;;;;14.40;7.18;;;16.50;99.90;;;;;;5030502;28;20470;-69
2022/06/17 02:24:17;;;;;;;7.22;6.63;;;16.50;99.90;;;;;;5030276;28;20083;-69
2022/06/17 02:26:44;;;;;;;8.13;7.30;;;16.40;99.90;;;;;;5030584;28;20104;-69
2022/06/17 02:29:11;;;;;;;8.98;7.38;;;16.60;99.90;;;;;;5029705;28;20026;-69
2022/06/17 02:31:39;;;;;;;8.48;7.68;;;16.50;99.90;;;;;;5029219;28;20033;-69
2022/06/17 02:34:06;;;;;;;9.00;7.82;;;16.60;99.90;;;;;;5028620;28;20069;-69
2022/06/17 02:36:38;;;;;;;9.18;8.10;;;16.60;99.90;;;;;;5030660;28;20026;-69
2022/06/17 02:39:05;;;;;;;10.63;8.73;;;16.40;99.90;;;;;;5029881;28;20042;-69
2022/06/17 02:41:30;;;;;;;9.05;8.15;;;16.40;99.90;;;;;;5029603;28;20088;-69
2022/06/17 02:44:05;;;;;;;9.38;7.63;;;16.50;99.90;;;;;;5029644;28;20514;-69
2022/06/17 02:46:36;;;;;;;7.85;7.05;;;16.40;99.90;;;;;;5030045;28;20025;-68
2022/06/17 02:49:12;;;;;;;9.43;8.35;;;16.50;99.90;;;;;;5029604;28;20037;-69
2022/06/17 02:51:39;;;;;;;8.93;8.13;;;16.30;99.90;;;;;;5030394;28;20463;-68
2022/06/17 02:54:07;;;;;;;9.57;8.68;;;16.00;99.90;;;;;;5029544;28;20390;-68
2022/06/17 02:56:35;;;;;;;9.77;8.65;;;16.20;99.90;;;;;;5030007;28;20112;-68
2022/06/17 02:59:28;;;;;;;10.65;9.27;;;16.20;99.90;;;;;;5028871;28;20041;-70
2022/06/17 03:01:58;;;;;;;10.52;9.00;;;16.20;99.90;;;;;;5023432;28;20037;-68
2022/06/17 03:04:26;;;;;;;10.77;9.48;;;16.10;99.90;;;;;;5029828;28;20423;-68
2022/06/17 03:06:52;;;;;;;10.25;8.85;;;16.10;99.90;;;;;;5029297;28;20083;-68
2022/06/17 03:09:24;;;;;;;10.30;9.40;;;16.00;99.90;;;;;;5029513;28;20033;-68
2022/06/17 03:12:15;;;;;;;10.90;9.43;;;16.10;99.90;;;;;;5029382;28;20044;-68
2022/06/17 03:14:54;;;;;;;10.32;9.32;;;16.00;99.90;;;;;;5020640;28;20048;-68
2022/06/17 03:17:24;;;;;;;11.48;10.27;;;16.00;99.90;;;;;;5029432;28;20736;-68
2022/06/17 03:19:51;;;;;;;10.00;9.07;;;16.00;99.90;;;;;;5029535;28;20048;-68
2022/06/17 03:22:16;;;;;;;10.77;9.70;;;15.80;99.90;;;;;;5028985;28;20128;-68
2022/06/17 03:24:55;;;;;;;11.38;10.38;;;15.50;99.90;;;;;;5029494;28;20160;-68
2022/06/17 03:27:38;;;;;;;13.05;9.82;;;15.70;99.90;;;;;;5028637;28;20073;-68
2022/06/17 03:30:05;;;;;;;10.93;9.38;;;15.80;99.90;;;;;;5029045;28;20128;-68
2022/06/17 03:32:41;;;;;;;10.80;9.73;;;15.90;99.90;;;;;;5029149;28;20040;-68
2022/06/17 03:35:16;;;;;;;11.57;10.35;;;15.60;99.90;;;;;;5029356;28;20029;-68
2022/06/17 03:38:01;;;;;;;10.98;9.85;;;15.70;99.90;;;;;;5029247;28;20079;-68
2022/06/17 03:40:34;;;;;;;10.90;9.90;;;15.70;99.90;;;;;;5029177;28;20030;-68
2022/06/17 03:43:11;;;;;;;13.00;10.23;;;15.80;99.90;;;;;;5029121;28;20029;-68
2022/06/17 03:45:47;;;;;;;11.85;10.75;;;15.70;99.90;;;;;;5028313;28;20482;-68
2022/06/17 03:48:33;;;;;;;10.25;9.18;;;15.80;99.90;;;;;;5029003;28;20024;-70
2022/06/17 03:50:59;;;;;;;12.43;11.20;;;15.90;99.90;;;;;;5028763;28;20033;-69
2022/06/17 03:53:37;;;;;;;15.65;10.65;;;15.90;99.90;;;;;;5031443;28;20037;-69
2022/06/17 03:56:10;;;;;;;11.27;9.75;;;15.80;99.90;;;;;;5032659;28;20025;-69
2022/06/17 03:58:38;;;;;;;10.88;9.73;;;16.20;99.90;;;;;;5033579;28;20034;-69
2022/06/17 04:01:26;;;;;;;11.48;10.38;;;16.30;99.90;;;;;;5031830;28;20026;-69
2022/06/17 04:03:56;;;;;;;11.70;10.68;;;16.20;99.90;;;;;;5032892;28;20120;-69
2022/06/17 04:06:27;;;;;;;10.20;9.20;;;16.40;99.90;;;;;;5033080;28;20029;-69
2022/06/17 04:08:59;;;;;;;11.80;10.02;;;16.40;99.90;;;;;;5032817;28;20025;-69
2022/06/17 04:11:29;;;;;;;11.38;10.15;;;16.60;99.90;;;;;;5032733;28;20517;-69
2022/06/17 04:14:00;;;;;;;12.35;10.52;;;16.60;99.90;;;;;;5032848;28;20045;-69
2022/06/17 04:16:37;;;;;;;12.07;10.88;;;16.80;99.90;;;;;;5033363;28;20096;-69
2022/06/17 04:19:21;;;;;;;12.18;10.80;;;16.70;99.90;;;;;;5032455;28;20124;-68
2022/06/17 04:21:48;;;;;;;12.20;10.88;;;16.80;99.90;;;;;;5033023;28;20086;-69
2022/06/17 04:24:17;;;;;;;11.43;10.15;;;17.10;99.90;;;;;;5031976;28;20406;-69
2022/06/17 04:26:46;;;;;;;12.13;11.02;;;16.90;99.90;;;;;;5032893;28;20033;-69
2022/06/17 04:29:39;;;;;;;14.02;12.65;;;17.20;99.90;;;;;;5031160;28;20067;-69
2022/06/17 04:32:18;;;;;;;12.60;11.30;;;17.10;99.90;;;;;;5031527;28;20117;-69
2022/06/17 04:34:44;;;;;;;12.48;9.73;;;17.10;99.90;;;;;;5025809;28;20557;-69
2022/06/17 04:37:19;;;;;;;12.65;10.35;;;17.20;99.90;;;;;;5032200;28;20097;-69
2022/06/17 04:39:50;;;;;;;11.38;10.27;;;17.20;99.90;;;;;;5031942;28;20037;-69
2022/06/17 04:42:19;;;;;;;11.77;10.68;;;17.20;99.90;;;;;;5032585;28;20025;-68
2022/06/17 04:44:45;;;;;;;11.65;10.65;;;17.30;99.90;;;;;;5032384;28;20017;-69
2022/06/17 04:47:16;;;;;;;11.38;10.38;;;17.40;99.90;;;;;;5032243;28;20083;-69
2022/06/17 04:49:52;;;;;;;10.68;9.30;;;17.30;99.90;;;;;;5032383;28;20030;-69
2022/06/17 04:52:23;;;;;;;11.05;9.73;;;17.40;99.90;;;;;;5032357;28;20052;-69
2022/06/17 04:54:49;;;;;;;12.80;9.30;;;17.40;99.90;;;;;;5030450;28;20026;-69
2022/06/17 04:57:15;;;;;;;9.90;8.93;;;17.60;99.90;;;;;;5032172;28;20029;-69
2022/06/17 04:59:44;;;;;;;10.75;9.50;;;17.40;99.90;;;;;;5032187;28;20072;-69
2022/06/17 05:02:25;;;;;;;9.75;8.32;;;17.50;99.90;;;;;;5030173;28;20091;-69
2022/06/17 05:04:53;;;;;;;9.77;8.77;;;18.80;99.90;;;;;;5031078;28;20044;-69
2022/06/17 05:07:19;;;;;;;9.15;8.35;;;17.60;99.80;;;;;;5030508;28;20022;-69
2022/06/17 05:10:03;;;;;;;8.98;8.07;;;17.60;99.40;;;;;;5031559;28;20021;-69
2022/06/17 05:12:34;;;;;;;9.20;8.40;;;17.60;99.90;;;;;;5032218;28;20029;-69
2022/06/17 05:15:01;;;;;;;10.25;9.30;;;19.00;99.90;;;;;;5030348;28;20487;-69
2022/06/17 05:17:27;;;;;;;9.00;8.10;;;17.60;99.50;;;;;;5031878;28;20025;-69
2022/06/17 05:19:53;;;;;;;10.20;9.20;;;17.80;99.20;;;;;;5029247;28;20459;-68
2022/06/17 05:22:36;;;;;;;10.65;9.63;;;19.50;99.40;;;;;;5028968;28;20038;-69
2022/06/17 05:25:07;;;;;;;10.85;9.77;;;18.00;99.30;;;;;;5027923;28;20033;-69
2022/06/17 05:27:33;;;;;;;12.18;8.02;;;18.00;99.00;;;;;;5031395;28;20021;-69
2022/06/17 05:29:58;;;;;;;11.13;8.60;;;18.00;98.80;;;;;;5030445;28;20017;-68
2022/06/17 05:32:24;;;;;;;10.77;9.68;;;18.10;98.60;;;;;;5030760;28;20395;-68
2022/06/17 05:34:50;;;;;;;9.80;8.40;;;18.10;98.50;;;;;;5026763;28;20112;-68
2022/06/17 05:37:15;;;;;;;9.25;8.45;;;18.10;98.50;;;;;;5026369;28;20072;-68
2022/06/17 05:39:41;;;;;;;9.50;8.55;;;18.10;98.40;;;;;;5029814;28;20123;-68
2022/06/17 05:42:07;;;;;;;8.60;7.80;;;18.10;98.50;;;;;;5028560;28;20025;-68
2022/06/17 05:44:33;;;;;;;11.23;9.02;;;18.20;98.30;;;;;;5022259;28;20041;-68
2022/06/17 05:46:58;;;;;;;11.32;7.28;;;18.40;98.20;;;;;;5030550;28;20489;-69
2022/06/17 05:49:24;;;;;;;10.30;7.32;;;18.60;97.90;;;;;;5027740;28;20026;-68
2022/06/17 05:51:50;;;;;;;8.70;7.20;;;18.90;97.60;;;;;;5028775;28;20025;-69
2022/06/17 05:54:16;;;;;;;7.28;6.30;;;19.00;97.10;;;;;;5030037;28;20360;-69
2022/06/17 05:56:41;;;;;;;10.48;7.45;;;19.30;96.90;;;;;;5030781;28;20029;-69
2022/06/17 05:59:07;;;;;;;9.35;6.38;;;19.40;96.50;;;;;;5030005;28;20037;-68
2022/06/17 06:01:33;;;;;;;5.90;5.38;;;19.60;96.30;;;;;;5030381;28;20030;-68
2022/06/17 06:03:58;;;;;;;7.53;6.25;;;19.50;96.20;;;;;;5022212;28;20026;-68
2022/06/17 06:06:24;;;;;;;7.07;5.60;;;19.70;96.20;;;;;;5021154;28;20021;-68
2022/06/17 06:08:49;;;;;;;6.45;5.82;;;19.90;95.80;;;;;;5015744;28;20079;-68
2022/06/17 06:11:15;;;;;;;6.85;5.72;;;20.00;95.50;;;;;;5028752;28;20022;-68
2022/06/17 06:13:41;;;;;;;6.05;5.38;;;20.30;95.30;;;;;;5016625;28;20038;-68
2022/06/17 06:16:08;;;;;;;6.13;4.13;;;20.40;95.10;;;;;;5020756;28;20037;-67
2022/06/17 06:18:36;;;;;;;6.05;4.80;;;20.50;94.80;;;;;;5028946;28;20076;-68
2022/06/17 06:21:04;;;;;;;6.22;5.38;;;20.60;94.60;;;;;;5028747;28;20356;-68
2022/06/17 06:23:33;;;;;;;6.32;5.03;;;21.90;94.60;;;;;;5029462;28;20054;-68
2022/06/17 06:25:59;;;;;;;6.88;4.40;;;20.90;93.30;;;;;;5028533;28;20481;-68
2022/06/17 06:28:26;;;;;;;6.93;5.18;;;21.70;94.10;;;;;;5029211;28;20048;-68
2022/06/17 06:31:00;;;;;;;5.07;4.60;;;20.90;93.90;;;;;;5027262;28;20398;-68
2022/06/17 06:33:25;;;;;;;;;;;21.00;94.20;;;;;;5029557;28;20475;-68
2022/06/17 06:35:51;;;;;;;6.60;4.43;;;20.90;94.50;;;;;;5028136;28;19909;-68
2022/06/17 06:38:17;;;;;;;6.28;3.95;;;21.20;94.10;;;;;;5028636;28;20037;-69
2022/06/17 06:40:43;;;;;;;5.25;4.40;;;20.90;94.00;;;;;;5028296;28;20029;-69
2022/06/17 06:43:21;;;;;;;9.27;5.10;;;20.80;93.90;;;;;;5028242;28;20025;-69
2022/06/17 06:45:49;;;;;;;4.85;4.35;;;21.10;93.50;;;;;;5028876;28;20079;-69
2022/06/17 06:48:18;;;;;;;8.63;4.25;;;21.60;93.90;;;;;;5028238;28;20836;-69
2022/06/17 06:50:43;;;;;;;5.70;3.88;;;21.40;93.50;;;;;;5028208;28;20033;-69
2022/06/17 06:53:09;;;;;;;4.22;3.63;;;22.80;93.20;;;;;;5028546;28;20540;-69
2022/06/17 06:55:35;;;;;;;4.05;2.80;;;23.30;93.00;;;;;;5028335;28;20540;-69
2022/06/17 06:58:07;;;;;;;5.57;3.30;;;21.70;92.40;;;;;;5027746;28;20438;-68
2022/06/17 07:00:36;;;;;;;5.38;3.55;;;22.00;92.50;;;;;;5025461;28;20057;-70
2022/06/17 07:03:02;;;;;;;4.78;2.92;;;22.00;92.30;;;;;;5027781;28;20022;-68
2022/06/17 07:05:29;;;;;;;2.92;2.65;;;22.10;92.30;;;;;;5023166;28;20084;-68
2022/06/17 07:07:55;;;;;;;4.32;2.72;;;22.20;92.00;;;;;;5028296;28;20038;-68
2022/06/17 07:10:25;;;;;;;3.67;3.20;;;22.10;91.70;;;;;;5027480;28;20406;-68
2022/06/17 07:12:51;;;;;;;2.83;2.45;;;22.00;91.70;;;;;;5022933;28;20025;-67
2022/06/17 07:15:17;;;;;;;5.30;3.25;;;22.40;91.60;;;;;;5027920;28;20025;-68
2022/06/17 07:17:56;;;;;;;7.65;3.00;;;22.60;91.20;;;;;;5024498;28;20083;-67
2022/06/17 07:20:23;;;;;;;3.97;3.35;;;22.70;91.40;;;;;;5028001;28;20041;-69
2022/06/17 07:22:49;;;;;;;2.75;2.53;;;22.80;90.90;;;;;;5028448;28;20132;-68
2022/06/17 07:25:15;;;;;;;5.65;2.70;;;22.70;90.70;;;;;;5028952;28;20041;-69
2022/06/17 07:27:40;;;;;;;7.35;2.70;;;22.70;90.50;;;;;;5028384;28;20394;-67
2022/06/17 07:30:07;;;;;;;4.22;2.42;;;22.60;90.30;;;;;;5027409;28;20025;-68
2022/06/17 07:32:32;;;;;;;3.38;2.20;;;22.60;90.20;;;;;;5028729;28;20029;-67
2022/06/17 07:34:58;;;;;;;3.70;2.25;;;22.60;90.40;;;;;;5033658;28;20025;-68
2022/06/17 07:40:08;;;;;;;4.95;2.33;;;22.40;89.40;;;;;;5028576;28;20084;-66
2022/06/17 07:42:39;;;;;;;3.53;2.58;;;22.60;90.00;;;;;;5029108;28;20022;-67
2022/06/17 07:45:12;;;;;;;2.65;2.17;;;22.70;88.80;;;;;;5028968;28;20017;-67
2022/06/17 07:47:39;;;;;;;3.97;1.65;;;22.80;90.30;;;;;;5027327;28;20047;-67
2022/06/17 07:50:08;;;;;;;3.90;2.08;;;22.80;89.60;;;;;;5028620;28;20471;-67
2022/06/17 07:52:33;;;;;;;3.55;2.05;;;23.00;89.10;;;;;;5029010;28;20116;-67
2022/06/17 07:54:59;;;;;;;6.95;2.10;;;23.00;88.60;;;;;;5028026;28;20044;-70
2022/06/17 07:57:25;;;;;;;4.97;2.78;;;23.10;88.30;;;;;;5028585;28;20049;-67
2022/06/17 07:59:51;;;;;;;3.92;1.92;;;23.20;88.40;;;;;;5021879;28;20132;-71
2022/06/17 08:02:16;;;;;;;5.03;2.50;;;24.40;88.10;;;;;;5027588;28;20097;-69
2022/06/17 08:04:42;;;;;;;2.38;2.05;;;24.70;87.90;;;;;;5033247;28;20033;-67
2022/06/17 08:07:07;;;;;;;4.13;2.05;;;23.40;86.40;;;;;;5028772;28;20525;-69
2022/06/17 08:09:33;;;;;;;4.57;2.22;;;23.60;85.80;;;;;;5023764;28;20087;-68
2022/06/17 08:11:59;;;;;;;3.67;2.17;;;24.60;85.30;;;;;;5027467;28;20045;-68
2022/06/17 08:14:24;;;;;;;2.78;1.90;;;23.60;84.50;;;;;;5025725;28;20108;-68
2022/06/17 08:16:50;;;;;;;5.53;2.25;;;23.70;84.30;;;;;;5028208;28;20025;-68
2022/06/17 08:19:16;;;;;;;2.08;1.88;;;23.80;83.40;;;;;;5028330;28;20033;-68
2022/06/17 08:21:42;;;;;;;3.50;1.92;;;25.40;83.50;;;;;;5029061;28;20033;-68
2022/06/17 08:24:08;;;;;;;4.10;2.05;;;24.00;82.10;;;;;;5028155;28;20540;-67
2022/06/17 08:26:34;;;;;;;6.13;2.10;;;24.20;81.90;;;;;;5028675;28;20018;-67
2022/06/17 08:29:00;;;;;;;4.35;2.25;;;25.10;82.20;;;;;;5028158;28;20033;-68
2022/06/17 08:31:26;;;;;;;5.47;2.83;;;24.10;80.90;;;;;;5028227;28;20028;-68
2022/06/17 08:33:51;;;;;;;4.95;2.17;;;25.30;81.40;;;;;;5014509;28;20030;-67
2022/06/17 08:36:25;;;;;;;4.68;2.45;;;24.20;80.50;;;;;;5027037;28;20379;-67
2022/06/17 08:38:56;;;;;;;3.20;2.42;;;24.60;81.30;;;;;;5027314;28;20534;-68
2022/06/17 08:41:32;;;;;;;8.10;2.38;;;24.30;80.80;;;;;;5031519;28;20036;-68
2022/06/17 08:44:06;;;;;;;4.57;2.33;;;24.40;80.60;;;;;;5031818;28;20014;-68
2022/06/17 08:46:53;;;;;;;4.03;1.65;;;24.40;78.30;;;;;;5029613;28;20521;-68
2022/06/17 08:49:38;;;;;;;3.20;2.03;;;24.40;78.10;;;;;;5031788;28;20029;-67
2022/06/17 08:52:25;;;;;;;4.43;2.50;;;24.40;77.50;;;;;;5031781;28;20021;-67
2022/06/17 08:55:20;;;;;;;3.35;2.15;;;24.30;77.40;;;;;;5031861;28;20393;-68
2022/06/17 08:58:14;;;;;;;7.00;1.80;;;24.40;77.00;;;;;;5027789;28;20025;-69
2022/06/17 09:01:31;;;;;;;7.72;2.13;;;24.10;76.40;;;;;;5031581;28;20052;-69
2022/06/17 09:04:29;;;;;;;7.68;3.65;;;24.50;76.30;;;;;;5005862;28;20063;-68
2022/06/17 09:07:16;;;;;;;6.18;1.70;;;24.60;76.40;;;;;;5031788;28;20540;-68
2022/06/17 09:10:29;;;;;;;4.63;1.92;;;24.60;76.30;;;;;;5032163;28;20044;-67
2022/06/17 09:13:02;;;;;;;5.70;1.73;;;24.70;76.30;;;;;;4994968;28;20039;-68
2022/06/17 09:15:45;;;;;;;3.65;2.67;;;24.80;76.10;;;;;;4989867;28;20034;-68
2022/06/17 09:18:29;;;;;;;4.75;2.22;;;24.70;76.50;;;;;;4979776;28;20141;-68
2022/06/17 09:21:13;;;;;;;6.20;2.42;;;24.60;77.00;;;;;;4990001;28;20022;-68
2022/06/17 09:23:40;;;;;;;5.00;2.45;;;24.70;78.40;;;;;;4990188;28;20085;-68
2022/06/17 09:26:15;;;;;;;7.50;2.38;;;24.50;77.80;;;;;;4992141;28;20021;-68
2022/06/17 09:28:46;;;;;;;5.25;3.20;;;25.10;78.30;;;;;;4989393;28;20069;-68
2022/06/17 09:31:20;;;;;;;4.55;2.33;;;25.80;78.40;;;;;;4989531;28;20053;-68
2022/06/17 09:33:51;;;;;;;3.85;1.80;;;25.40;78.00;;;;;;4989949;28;20034;-68
2022/06/17 09:36:25;;;;;;;4.00;2.50;;;26.10;77.80;;;;;;4989468;28;20109;-68
2022/06/17 09:38:56;;;;;;;;;;;24.70;76.90;;;;;;4990226;28;20209;-68
2022/06/17 09:41:35;;;;;;;2.72;1.95;;;24.70;75.70;;;;;;4989445;28;19979;-68
2022/06/17 09:44:29;;;;;;;3.22;1.75;;;24.70;76.90;;;;;;4989052;28;20054;-68
2022/06/17 09:47:08;;;;;;;3.88;3.03;;;24.80;74.90;;;;;;4989377;28;20105;-68
2022/06/17 09:49:41;;;;;;;4.22;2.17;;;24.80;76.00;;;;;;5014948;28;20160;-67
2022/06/17 09:52:10;;;;;;;3.90;2.20;;;26.10;77.10;;;;;;5029126;28;20022;-67
2022/06/17 09:54:41;;;;;;;4.03;2.85;;;24.80;75.00;;;;;;5030228;28;20082;-67
2022/06/17 09:57:23;;;;;;;5.97;2.45;;;25.00;75.90;;;;;;5030281;28;20108;-68
2022/06/17 09:59:58;;;;;;;5.30;2.30;;;25.00;74.30;;;;;;5025861;28;20029;-68
2022/06/17 10:02:51;;;;;;;3.22;1.80;;;25.10;75.60;;;;;;5028706;28;20040;-67
2022/06/17 10:05:43;;;;;;;4.00;1.95;;;25.10;75.30;;;;;;5030542;28;20056;-67
2022/06/17 10:08:36;;;;;;;4.30;2.55;;;26.30;76.00;;;;;;5023583;28;20025;-67
2022/06/17 10:11:20;;;;;;;6.15;2.65;;;25.20;72.60;;;;;;5026801;28;20021;-67
2022/06/17 10:13:46;;;;;;;4.13;2.53;;;25.20;74.70;;;;;;5025378;28;20025;-67
2022/06/17 10:19:51;;;;;;;4.80;2.33;;;25.30;72.50;;;;;;5029602;28;20051;-67
2022/06/17 10:23:15;;;;;;;6.05;1.92;;;25.40;72.40;;;;;;5030575;28;20045;-70
2022/06/17 10:26:03;;;;;;;3.35;2.25;;;25.50;72.10;;;;;;4988102;28;20148;-68
2022/06/17 10:28:54;;;;;;;6.63;2.20;;;25.50;71.50;;;;;;4971494;28;20587;-68
2022/06/17 10:31:44;;;;;;;4.30;1.65;;;25.60;71.60;;;;;;4988067;28;20101;-67
2022/06/17 10:34:16;;;;;;;3.88;2.13;;;25.80;73.60;;;;;;4981024;28;20612;-67
2022/06/17 10:36:43;;;;;;;5.18;2.20;;;25.70;72.80;;;;;;4988542;28;20153;-68
2022/06/17 10:39:12;;;;;;;3.05;1.80;;;25.80;72.50;;;;;;4987632;28;20047;-67
2022/06/17 10:41:38;;;;;;;3.15;2.13;;;25.80;72.80;;;;;;4987979;28;20219;-66
2022/06/17 10:44:08;;;;;;;4.05;2.10;;;25.90;72.20;;;;;;4987694;28;20045;-67
2022/06/17 10:46:39;;;;;;;5.35;2.85;;;26.10;71.80;;;;;;4989266;28;20035;-67
2022/06/17 10:49:16;;;;;;;3.58;2.15;;;26.00;71.10;;;;;;4988258;28;20045;-67
2022/06/17 10:51:43;;;;;;;6.20;2.28;;;26.00;69.10;;;;;;4988246;28;20037;-68
2022/06/17 10:54:23;;;;;;;2.05;1.50;;;27.70;71.60;;;;;;4987866;28;20038;-68
2022/06/17 10:56:58;;;;;;;2.85;1.60;;;26.20;68.70;;;;;;5018940;28;20061;-68
2022/06/17 10:59:34;;;;;;;3.05;1.52;;;26.10;68.20;;;;;;5028407;28;20051;-67
2022/06/17 11:02:00;;;;;;;2.45;1.70;;;27.10;70.70;;;;;;5018096;28;20021;-68
2022/06/17 11:04:34;;;;;;;4.63;1.67;;;26.20;69.30;;;;;;5026208;28;20036;-68
2022/06/17 11:07:17;;;;;;;5.65;1.40;;;26.20;69.60;;;;;;5019728;28;20106;-68
2022/06/17 11:09:52;;;;;;;2.42;1.33;;;26.30;66.90;;;;;;5027163;28;20024;-69
2022/06/17 11:12:22;;;;;;;3.90;1.33;;;26.30;68.80;;;;;;5028873;28;20029;-68
2022/06/17 11:14:50;;;;;;;2.10;1.17;;;26.50;68.50;;;;;;5028909;28;20022;-68
2022/06/17 11:17:28;;;;;;;3.40;1.58;;;26.40;67.80;;;;;;5028464;28;20026;-68
2022/06/17 11:19:57;;;;;;;2.33;1.17;;;26.40;68.60;;;;;;5026489;28;20121;-68
2022/06/17 11:22:38;;;;;;;6.57;3.40;;;26.60;68.30;;;;;;5028369;28;20068;-68
2022/06/17 11:25:37;;;;;;;4.78;2.50;;;26.50;68.50;;;;;;5028495;28;20378;-67
2022/06/17 11:28:18;;;;;;;3.35;1.67;;;26.70;68.20;;;;;;4982904;28;20083;-67
2022/06/17 11:30:58;;;;;;;6.22;2.30;;;27.30;68.40;;;;;;5029296;28;20039;-68
2022/06/17 11:33:23;;;;;;;5.80;1.88;;;24.10;64.30;;;;;;5029238;28;20028;-69
2022/06/17 11:36:13;;;;;;;2.15;1.40;;;27.20;67.40;;;;;;5028830;28;20021;-69
2022/06/17 11:38:39;;;;;;;4.90;1.73;;;26.70;65.90;;;;;;5028805;28;20164;-68
2022/06/17 11:41:05;;;;;;;3.13;1.52;;;26.80;67.20;;;;;;5028148;28;20117;-69
2022/06/17 11:43:43;;;;;;;4.82;2.65;;;26.90;67.20;;;;;;5029006;28;20021;-68
2022/06/17 11:46:36;;;;;;;2.75;1.42;;;26.90;67.40;;;;;;5025576;28;20021;-68
2022/06/17 11:49:12;;;;;;;2.93;1.47;;;24.00;63.20;;;;;;5024953;28;20041;-68
2022/06/17 11:51:41;;;;;;;2.92;1.88;;;26.90;67.60;;;;;;5029027;28;20026;-68
2022/06/17 11:54:16;;;;;;;3.42;1.70;;;27.30;67.30;;;;;;5027668;28;20041;-68
2022/06/17 11:56:43;;;;;;;2.13;1.70;;;27.10;67.00;;;;;;5028532;28;20029;-69
2022/06/17 11:59:15;;;;;;;3.25;2.47;;;27.20;66.30;;;;;;5028439;28;20037;-69
2022/06/17 12:01:47;;;;;;;4.22;1.90;;;27.20;66.00;;;;;;5028484;28;20021;-69
2022/06/17 12:04:47;;;;;;;5.95;2.65;;;27.40;66.10;;;;;;5021668;28;20091;-68
2022/06/17 12:07:31;;;;;;;5.68;3.67;;;27.40;64.70;;;;;;5026255;28;20391;-67
2022/06/17 12:10:10;;;;;;;3.15;2.13;;;27.40;63.70;;;;;;5028252;28;20172;-68
2022/06/17 12:12:36;;;;;;;3.53;2.53;;;28.00;65.90;;;;;;5028223;28;20032;-68
2022/06/17 12:15:12;;;;;;;5.40;2.40;;;27.40;64.40;;;;;;5031487;28;20025;-68
2022/06/17 12:17:39;;;;;;;5.28;2.47;;;27.70;64.70;;;;;;5027212;28;20029;-68
2022/06/17 12:20:17;;;;;;;6.55;2.88;;;27.70;64.70;;;;;;5035691;28;20124;-69
2022/06/17 12:22:48;;;;;;;4.70;3.20;;;29.00;65.90;;;;;;5028222;28;20046;-68
2022/06/17 12:25:45;;;;;;;2.85;2.65;;;27.70;63.80;;;;;;5022953;28;20021;-68
2022/06/17 12:28:22;;;;;;;3.28;2.22;;;27.80;62.40;;;;;;5017641;28;20040;-68
2022/06/17 12:31:05;;;;;;;2.92;2.28;;;27.70;62.30;;;;;;5032481;28;20022;-68
2022/06/17 12:33:59;;;;;;;5.60;3.10;;;29.00;65.00;;;;;;5029782;28;20037;-68
2022/06/17 12:36:47;;;;;;;6.03;3.13;;;27.90;63.90;;;;;;5019513;28;20087;-68
2022/06/17 12:39:38;;;;;;;4.72;2.30;;;28.00;61.30;;;;;;5026435;28;20048;-69
2022/06/17 12:42:08;;;;;;;3.03;2.30;;;28.20;61.10;;;;;;5031036;28;20029;-68
2022/06/17 12:44:54;;;;;;;3.45;2.20;;;29.30;62.90;;;;;;5032248;28;20032;-69
2022/06/17 12:47:38;;;;;;;3.97;2.10;;;28.40;59.90;;;;;;5025753;28;20041;-68
2022/06/17 12:53:49;;;;;;;5.18;2.70;;;31.30;61.80;;;;;;5024006;28;20033;-69
2022/06/17 12:56:56;;;;;;;6.68;3.03;;;28.60;59.30;;;;;;5026861;28;20143;-69
2022/06/17 12:59:28;;;;;;;4.82;2.00;;;28.80;59.60;;;;;;5024565;28;20029;-68
2022/06/17 13:02:05;;;;;;;6.68;3.72;;;29.00;61.40;;;;;;5031858;28;20100;-68
2022/06/17 13:05:04;;;;;;;5.00;2.92;;;28.80;58.90;;;;;;5031688;28;20518;-69
2022/06/17 13:07:34;;;;;;;4.55;2.33;;;28.80;59.00;;;;;;5029044;28;20616;-68
2022/06/17 13:13:15;;;;;;;7.80;3.13;;;29.00;58.70;;;;;;5031496;28;20442;-69
2022/06/17 13:15:47;;;;;;;3.28;2.55;;;29.60;61.00;;;;;;5031570;28;20017;-69
2022/06/17 13:18:20;;;;;;;3.45;2.47;;;29.20;60.30;;;;;;5031058;28;20091;-70
2022/06/17 13:20:55;;;;;;;5.93;2.47;;;30.20;60.90;;;;;;5027335;28;20080;-70
2022/06/17 13:23:34;;;;;;;3.25;2.05;;;29.30;58.30;;;;;;5029922;28;20064;-69
2022/06/17 13:26:16;;;;;;;5.93;2.03;;;30.70;61.00;;;;;;5028904;28;20057;-68
2022/06/17 13:29:00;;;;;;;3.27;1.97;;;29.40;58.20;;;;;;5022402;28;20611;-68
2022/06/17 13:31:46;;;;;;;3.83;1.25;;;29.60;60.00;;;;;;5035347;28;20026;-68